createdAt,value
2022-12-01T00:00:11.453Z,61.13
2022-12-01T00:03:18.399Z,61.04
2022-12-01T00:06:26.528Z,60.88
2022-12-01T00:09:49.218Z,61.11
2022-12-01T00:13:03.706Z,61.02
2022-12-01T00:16:15.580Z,60.87
2022-12-01T00:19:23.079Z,61.11
2022-12-01T00:22:29.657Z,61.35
2022-12-01T00:25:37.100Z,61.34
2022-12-01T00:28:46.701Z,61.21
2022-12-01T00:31:54.170Z,61.32
2022-12-01T00:35:00.961Z,61.25
2022-12-01T00:38:09.252Z,61.63
2022-12-01T00:41:15.862Z,61.54
2022-12-01T00:44:26.152Z,62.36
2022-12-01T00:47:32.763Z,61.88
2022-12-01T00:50:40.352Z,61.89
2022-12-01T00:53:47.007Z,62.37
2022-12-01T00:56:57.214Z,62.14
2022-12-01T01:00:08.915Z,61.39
2022-12-01T01:03:16.499Z,61.90
2022-12-01T01:06:23.079Z,61.57
2022-12-01T01:09:30.656Z,62.05
2022-12-01T01:12:38.442Z,61.54
2022-12-01T01:15:49.169Z,62.09
2022-12-01T01:18:56.040Z,61.97
2022-12-01T01:22:03.511Z,61.77
2022-12-01T01:25:11.239Z,61.41
2022-12-01T01:28:19.056Z,61.23
2022-12-01T01:31:32.696Z,61.39
2022-12-01T01:34:40.281Z,61.85
2022-12-01T01:37:47.134Z,61.43
2022-12-01T01:40:54.736Z,61.45
2022-12-01T01:44:03.739Z,61.33
2022-12-01T01:47:15.106Z,62.01
2022-12-01T01:50:28.125Z,61.42
2022-12-01T01:53:36.680Z,61.63
2022-12-01T01:56:43.365Z,61.79
2022-12-01T02:00:00.540Z,61.52
2022-12-01T02:03:24.929Z,61.29
2022-12-01T02:06:32.711Z,61.41
2022-12-01T02:09:39.465Z,62.00
2022-12-01T02:13:10.408Z,62.02
2022-12-01T02:16:32.036Z,62.01
2022-12-01T02:20:22.498Z,61.68
2022-12-01T02:24:25.849Z,61.71
2022-12-01T02:28:10.493Z,62.24
2022-12-01T02:31:35.977Z,61.83
2022-12-01T02:34:59.152Z,61.81
2022-12-01T02:38:21.966Z,61.98
2022-12-01T02:41:36.524Z,61.69
2022-12-01T02:44:50.648Z,62.21
2022-12-01T02:48:08.546Z,61.87
2022-12-01T02:51:24.789Z,61.72
2022-12-01T02:54:36.769Z,61.67
2022-12-01T02:57:44.197Z,62.06
2022-12-01T03:01:14.709Z,61.72
2022-12-01T03:04:49.663Z,61.56
2022-12-01T03:08:19.793Z,61.70
2022-12-01T03:11:44.828Z,61.46
2022-12-01T03:15:08.480Z,62.01
2022-12-01T03:18:32.184Z,61.38
2022-12-01T03:21:52.239Z,62.13
2022-12-01T03:25:06.194Z,61.69
2022-12-01T03:28:21.656Z,62.25
2022-12-01T03:31:39.569Z,61.58
2022-12-01T03:34:56.675Z,61.78
2022-12-01T03:38:17.553Z,61.67
2022-12-01T03:41:35.546Z,62.16
2022-12-01T03:44:55.447Z,62.14
2022-12-01T03:48:03.349Z,62.23
2022-12-01T03:51:24.470Z,62.04
2022-12-01T03:54:55.139Z,61.97
2022-12-01T03:58:12.210Z,62.35
2022-12-01T04:01:20.777Z,62.41
2022-12-01T04:04:28.269Z,61.76
2022-12-01T04:07:35.028Z,62.19
2022-12-01T04:10:45.473Z,62.19
2022-12-01T04:13:49.355Z,62.24
2022-12-01T04:16:56.829Z,61.96
2022-12-01T04:20:06.747Z,61.73
2022-12-01T04:23:34.322Z,62.39
2022-12-01T04:26:46.240Z,62.31
2022-12-01T04:29:53.978Z,62.59
2022-12-01T04:33:01.205Z,62.69
2022-12-01T04:36:10.655Z,62.69
2022-12-01T04:39:17.376Z,62.59
2022-12-01T04:42:27.530Z,62.54
2022-12-01T04:45:34.153Z,61.93
2022-12-01T04:48:43.683Z,61.57
2022-12-01T04:51:50.843Z,62.35
2022-12-01T04:54:58.809Z,61.54
2022-12-01T04:58:09.851Z,62.44
2022-12-01T05:01:21.007Z,61.75
2022-12-01T05:04:27.659Z,61.89
2022-12-01T05:07:35.123Z,62.02
2022-12-01T05:10:42.329Z,62.35
2022-12-01T05:13:53.459Z,62.50
2022-12-01T05:17:00.745Z,62.71
2022-12-01T05:20:36.776Z,62.06
2022-12-01T05:23:44.801Z,62.65
2022-12-01T05:26:52.433Z,62.61
2022-12-01T05:30:03.948Z,62.28
2022-12-01T05:33:11.561Z,62.51
2022-12-01T05:36:18.152Z,62.18
2022-12-01T05:39:25.583Z,62.15
2022-12-01T05:42:32.434Z,62.36
2022-12-01T05:45:42.994Z,61.96
2022-12-01T05:48:49.970Z,62.58
2022-12-01T05:52:06.105Z,62.23
2022-12-01T05:55:13.260Z,61.78
2022-12-01T05:58:20.756Z,62.55
2022-12-01T06:01:31.699Z,62.56
2022-12-01T06:04:39.160Z,61.68
2022-12-01T06:07:46.527Z,62.53
2022-12-01T06:10:54.077Z,62.51
2022-12-01T06:14:00.653Z,61.91
2022-12-01T06:17:12.043Z,62.33
2022-12-01T06:20:18.837Z,62.15
2022-12-01T06:23:30.334Z,61.60
2022-12-01T06:26:37.865Z,61.72
2022-12-01T06:29:45.626Z,60.93
2022-12-01T06:32:55.008Z,61.43
2022-12-01T06:36:08.139Z,61.37
2022-12-01T06:39:15.560Z,60.34
2022-12-01T06:42:23.168Z,60.65
2022-12-01T06:45:29.810Z,60.51
2022-12-01T06:48:40.438Z,60.69
2022-12-01T06:51:47.245Z,61.41
2022-12-01T06:54:55.097Z,60.78
2022-12-01T06:58:03.933Z,61.54
2022-12-01T07:01:13.952Z,61.08
2022-12-01T07:04:23.848Z,61.12
2022-12-01T07:07:32.026Z,61.20
2022-12-01T07:10:38.644Z,61.53
2022-12-01T07:13:49.733Z,61.20
2022-12-01T07:16:57.048Z,61.80
2022-12-01T07:20:10.321Z,61.65
2022-12-01T07:23:17.196Z,61.84
2022-12-01T07:26:24.773Z,61.62
2022-12-01T07:29:31.620Z,62.14
2022-12-01T07:32:39.181Z,61.59
2022-12-01T07:35:49.125Z,62.47
2022-12-01T07:38:57.346Z,62.46
2022-12-01T07:42:04.202Z,62.58
2022-12-01T07:45:12.762Z,62.75
2022-12-01T07:48:19.874Z,62.20
2022-12-01T07:51:31.287Z,61.42
2022-12-01T07:54:38.334Z,61.67
2022-12-01T07:57:46.520Z,61.63
2022-12-01T08:00:54.179Z,61.74
2022-12-01T08:04:03.970Z,62.13
2022-12-01T08:07:13.833Z,61.79
2022-12-01T08:10:21.522Z,61.33
2022-12-01T08:13:28.291Z,60.87
2022-12-01T08:16:35.886Z,60.79
2022-12-01T08:19:42.903Z,61.63
2022-12-01T08:22:53.376Z,61.97
2022-12-01T08:26:06.430Z,61.76
2022-12-01T08:29:19.761Z,61.61
2022-12-01T08:32:29.725Z,61.36
2022-12-01T08:35:40.496Z,61.60
2022-12-01T08:38:54.138Z,61.74
2022-12-01T08:42:03.217Z,61.39
2022-12-01T08:45:12.869Z,61.63
2022-12-01T08:48:23.670Z,61.76
2022-12-01T08:51:32.633Z,60.89
2022-12-01T08:54:43.534Z,62.10
2022-12-01T08:57:50.519Z,61.02
2022-12-01T09:01:07.962Z,61.99
2022-12-01T09:04:14.715Z,61.54
2022-12-01T09:07:26.582Z,61.57
2022-12-01T09:10:36.733Z,62.11
2022-12-01T09:13:51.318Z,62.16
2022-12-01T09:17:00.830Z,62.33
2022-12-01T09:20:12.481Z,62.55
2022-12-01T09:23:19.570Z,62.26
2022-12-01T09:26:30.827Z,61.92
2022-12-01T09:29:38.339Z,61.83
2022-12-01T09:32:46.075Z,61.92
2022-12-01T09:35:54.110Z,62.16
2022-12-01T09:39:04.277Z,61.50
2022-12-01T09:42:32.216Z,62.01
2022-12-01T09:45:50.226Z,61.86
2022-12-01T09:49:01.371Z,61.52
2022-12-01T09:52:15.966Z,61.09
2022-12-01T09:55:27.607Z,61.48
2022-12-01T09:58:38.325Z,61.54
2022-12-01T10:01:51.719Z,61.50
2022-12-01T10:05:06.527Z,61.26
2022-12-01T10:08:26.688Z,61.05
2022-12-01T10:11:41.928Z,61.60
2022-12-01T10:14:53.818Z,61.74
2022-12-01T10:18:24.173Z,61.49
2022-12-01T10:22:04.098Z,60.79
2022-12-01T10:25:27.683Z,60.98
2022-12-01T10:29:01.216Z,60.85
2022-12-01T10:32:23.024Z,60.67
2022-12-01T10:35:37.929Z,60.06
2022-12-01T10:38:45.662Z,60.44
2022-12-01T10:41:54.813Z,59.85
2022-12-01T10:45:08.515Z,59.73
2022-12-01T10:48:22.946Z,60.21
2022-12-01T10:51:32.160Z,59.93
2022-12-01T10:54:43.402Z,59.67
2022-12-01T10:57:52.106Z,60.33
2022-12-01T11:01:04.239Z,60.50
2022-12-01T11:04:37.694Z,61.30
2022-12-01T11:07:51.161Z,60.97
2022-12-01T11:11:00.564Z,60.70
2022-12-01T11:14:23.697Z,60.77
2022-12-01T11:17:41.738Z,60.55
2022-12-01T11:20:51.795Z,60.21
2022-12-01T11:24:00.105Z,59.92
2022-12-01T11:27:21.429Z,59.97
2022-12-01T11:30:32.880Z,60.19
2022-12-01T11:33:53.231Z,60.05
2022-12-01T11:37:10.005Z,60.49
2022-12-01T11:40:27.242Z,60.61
2022-12-01T11:43:46.744Z,61.51
2022-12-01T11:47:21.619Z,61.24
2022-12-01T11:50:31.117Z,60.68
2022-12-01T11:53:44.451Z,60.79
2022-12-01T11:57:25.236Z,60.41
2022-12-01T12:00:26.724Z,60.75
2022-12-01T12:03:55.463Z,61.05
2022-12-01T12:07:22.365Z,60.65
2022-12-01T12:10:54.205Z,60.64
2022-12-01T12:14:39.167Z,60.29
2022-12-01T12:18:10.067Z,60.74
2022-12-01T12:21:36.803Z,60.84
2022-12-01T12:25:07.861Z,61.00
2022-12-01T12:28:41.015Z,61.27
2022-12-01T12:32:11.843Z,61.52
2022-12-01T12:35:37.813Z,61.63
2022-12-01T12:39:13.574Z,61.65
2022-12-01T12:42:49.193Z,62.20
2022-12-01T12:46:08.820Z,61.64
2022-12-01T12:49:39.291Z,61.83
2022-12-01T12:52:55.209Z,61.32
2022-12-01T12:56:09.979Z,61.52
2022-12-01T12:59:26.586Z,60.68
2022-12-01T13:02:46.646Z,60.89
2022-12-01T13:06:07.886Z,60.29
2022-12-01T13:09:22.507Z,60.47
2022-12-01T13:12:38.711Z,60.79
2022-12-01T13:15:48.502Z,60.45
2022-12-01T13:19:10.600Z,59.90
2022-12-01T13:22:22.374Z,60.10
2022-12-01T13:25:38.456Z,59.88
2022-12-01T13:28:52.337Z,60.28
2022-12-01T13:32:00.138Z,60.02
2022-12-01T13:35:31.024Z,59.91
2022-12-01T13:38:40.058Z,60.54
2022-12-01T13:41:49.485Z,60.03
2022-12-01T13:45:04.176Z,60.31
2022-12-01T13:48:33.189Z,60.38
2022-12-01T13:52:30.257Z,60.51
2022-12-01T13:56:06.928Z,60.17
2022-12-01T14:00:23.877Z,60.69
2022-12-01T14:04:06.394Z,59.91
2022-12-01T14:07:38.415Z,59.96
2022-12-01T14:10:59.863Z,60.53
2022-12-01T14:14:26.040Z,59.16
2022-12-01T14:17:39.513Z,59.69
2022-12-01T14:20:50.906Z,59.87
2022-12-01T14:24:07.138Z,59.41
2022-12-01T14:27:17.511Z,59.44
2022-12-01T14:31:17.132Z,59.36
2022-12-01T14:34:28.687Z,59.63
2022-12-01T14:37:52.836Z,59.84
2022-12-01T14:41:00.704Z,60.04
2022-12-01T14:44:27.211Z,60.33
2022-12-01T14:47:50.692Z,60.32
2022-12-01T14:51:29.075Z,60.23
2022-12-01T14:54:48.221Z,60.41
2022-12-01T14:58:07.992Z,60.47
2022-12-01T15:01:18.383Z,60.83
2022-12-01T15:04:25.296Z,61.25
2022-12-01T15:07:33.263Z,60.61
2022-12-01T15:10:41.842Z,60.94
2022-12-01T15:13:53.457Z,60.73
2022-12-01T15:17:05.509Z,60.59
2022-12-01T15:20:33.004Z,60.38
2022-12-01T15:23:40.181Z,60.58
2022-12-01T15:26:52.138Z,60.05
2022-12-01T15:30:04.594Z,60.50
2022-12-01T15:33:27.752Z,60.37
2022-12-01T15:36:35.948Z,59.80
2022-12-01T15:39:50.023Z,60.39
2022-12-01T15:43:19.789Z,59.83
2022-12-01T15:46:34.596Z,59.88
2022-12-01T15:49:52.981Z,59.91
2022-12-01T15:53:06.268Z,59.76
2022-12-01T15:56:15.626Z,59.83
2022-12-01T15:59:37.026Z,60.19
2022-12-01T16:02:43.799Z,60.45
2022-12-01T16:05:54.786Z,60.36
2022-12-01T16:09:08.037Z,60.68
2022-12-01T16:12:29.145Z,60.58
2022-12-01T16:15:47.097Z,60.84
2022-12-01T16:19:03.501Z,61.02
2022-12-01T16:22:25.461Z,60.46
2022-12-01T16:25:42.472Z,60.79
2022-12-01T16:28:49.508Z,60.64
2022-12-01T16:35:32.350Z,61.15
2022-12-01T16:38:42.885Z,61.37
2022-12-01T16:41:49.880Z,61.41
2022-12-01T16:44:57.468Z,61.44
2022-12-01T16:48:09.109Z,61.61
2022-12-01T16:51:29.469Z,61.45
2022-12-01T16:54:39.656Z,61.47
2022-12-01T16:57:47.125Z,61.38
2022-12-01T17:00:55.577Z,61.50
2022-12-01T17:04:07.446Z,61.50
2022-12-01T17:07:14.587Z,61.04
2022-12-01T17:10:25.854Z,61.16
2022-12-01T17:13:32.496Z,61.14
2022-12-01T17:16:41.329Z,60.84
2022-12-01T17:19:48.052Z,60.63
2022-12-01T17:22:55.698Z,60.80
2022-12-01T17:26:09.371Z,60.69
2022-12-01T17:29:16.896Z,60.67
2022-12-01T17:32:25.728Z,61.07
2022-12-01T17:35:33.767Z,61.06
2022-12-01T17:38:42.529Z,61.53
2022-12-01T17:41:52.823Z,61.53
2022-12-01T17:44:59.522Z,61.46
2022-12-01T17:48:07.636Z,61.26
2022-12-01T17:51:17.347Z,61.54
2022-12-01T17:54:24.965Z,61.39
2022-12-01T17:57:34.604Z,61.33
2022-12-01T18:00:42.538Z,61.43
2022-12-01T18:03:51.008Z,61.32
2022-12-01T18:06:58.986Z,61.34
2022-12-01T18:10:07.336Z,61.43
2022-12-01T18:13:20.206Z,61.40
2022-12-01T18:16:32.966Z,61.12
2022-12-01T18:19:40.641Z,60.73
2022-12-01T18:22:48.291Z,60.77
2022-12-01T18:25:56.714Z,60.44
2022-12-01T18:29:09.645Z,60.56
2022-12-01T18:32:17.148Z,60.43
2022-12-01T18:35:27.467Z,60.33
2022-12-01T18:38:39.202Z,60.53
2022-12-01T18:41:46.720Z,60.40
2022-12-01T18:44:57.098Z,60.14
2022-12-01T18:48:03.749Z,59.86
2022-12-01T18:51:11.733Z,60.11
2022-12-01T18:54:19.788Z,59.79
2022-12-01T18:57:28.349Z,59.53
2022-12-01T19:00:37.944Z,59.74
2022-12-01T19:03:46.092Z,59.74
2022-12-01T19:06:53.068Z,60.05
2022-12-01T19:10:00.622Z,60.16
2022-12-01T19:13:08.653Z,60.23
2022-12-01T19:16:21.937Z,60.30
2022-12-01T19:19:31.890Z,60.30
2022-12-01T19:22:42.201Z,60.07
2022-12-01T19:25:48.911Z,60.49
2022-12-01T19:28:57.119Z,60.29
2022-12-01T19:32:06.651Z,60.75
2022-12-01T19:35:14.226Z,60.76
2022-12-01T19:38:20.913Z,60.57
2022-12-01T19:41:29.001Z,60.71
2022-12-01T19:44:35.695Z,60.55
2022-12-01T19:47:45.943Z,60.79
2022-12-01T19:50:52.704Z,60.64
2022-12-01T19:54:01.351Z,60.68
2022-12-01T19:57:08.964Z,60.86
2022-12-01T20:00:17.527Z,61.01
2022-12-01T20:03:26.949Z,60.75
2022-12-01T20:06:38.705Z,60.76
2022-12-01T20:09:49.750Z,60.38
2022-12-01T20:12:58.013Z,60.63
2022-12-01T20:16:06.689Z,60.88
2022-12-01T20:19:17.221Z,61.12
2022-12-01T20:22:24.254Z,61.32
2022-12-01T20:25:31.937Z,61.24
2022-12-01T20:28:41.219Z,60.98
2022-12-01T20:31:51.049Z,61.29
2022-12-01T20:35:04.152Z,61.86
2022-12-01T20:38:11.895Z,60.81
2022-12-01T20:41:18.820Z,60.88
2022-12-01T20:44:26.555Z,60.59
2022-12-01T20:47:36.712Z,60.41
2022-12-01T20:50:47.322Z,60.94
2022-12-01T20:54:19.679Z,60.88
2022-12-01T20:57:22.020Z,61.00
2022-12-01T21:00:28.727Z,61.35
2022-12-01T21:03:36.589Z,61.26
2022-12-01T21:06:46.012Z,61.28
2022-12-01T21:09:53.633Z,61.33
2022-12-01T21:13:32.907Z,60.78
2022-12-01T21:16:42.829Z,61.18
2022-12-01T21:20:03.629Z,60.43
2022-12-01T21:23:20.248Z,60.76
2022-12-01T21:26:26.873Z,60.43
2022-12-01T21:29:43.610Z,60.54
2022-12-01T21:32:52.591Z,60.80
2022-12-01T21:36:01.079Z,60.52
2022-12-01T21:39:23.848Z,59.92
2022-12-01T21:42:35.154Z,60.05
2022-12-01T21:45:42.072Z,60.39
2022-12-01T21:48:49.853Z,59.80
2022-12-01T21:51:57.575Z,60.05
2022-12-01T21:55:38.994Z,60.06
2022-12-01T21:58:47.532Z,59.80
2022-12-01T22:01:59.598Z,59.70
2022-12-01T22:05:31.159Z,59.47
2022-12-01T22:08:43.235Z,59.17
2022-12-01T22:11:57.713Z,59.70
2022-12-01T22:15:43.805Z,59.42
2022-12-01T22:18:55.139Z,59.24
2022-12-01T22:22:26.880Z,59.53
2022-12-01T22:25:33.595Z,59.60
2022-12-01T22:28:43.868Z,59.63
2022-12-01T22:31:51.064Z,59.45
2022-12-01T22:35:15.152Z,60.00
2022-12-01T22:38:37.895Z,60.32
2022-12-01T22:41:45.528Z,60.78
2022-12-01T22:44:55.791Z,60.82
2022-12-01T22:48:06.449Z,61.13
2022-12-01T22:51:38.520Z,61.27
2022-12-01T22:54:49.971Z,61.75
2022-12-01T22:57:58.043Z,61.79
2022-12-01T23:01:28.568Z,61.78
2022-12-01T23:04:43.108Z,61.78
2022-12-01T23:07:51.062Z,61.89
2022-12-01T23:10:57.981Z,62.06
2022-12-01T23:14:12.134Z,62.05
2022-12-01T23:17:25.866Z,62.24
2022-12-01T23:20:36.740Z,61.80
2022-12-01T23:23:43.402Z,61.67
2022-12-01T23:26:50.877Z,62.10
2022-12-01T23:29:57.663Z,62.19
2022-12-01T23:33:22.165Z,62.10
2022-12-01T23:36:32.756Z,61.57
2022-12-01T23:39:40.311Z,61.72
2022-12-01T23:42:47.379Z,61.39
2022-12-01T23:46:07.799Z,61.22
2022-12-01T23:49:23.394Z,60.90
2022-12-01T23:52:39.719Z,60.60
2022-12-01T23:55:46.513Z,60.41
2022-12-01T23:58:59.705Z,60.12
